createdAt,value
2023-05-09T00:00:02.173Z,2.63
2023-05-09T00:02:30.883Z,2.80
2023-05-09T00:05:00.112Z,2.33
2023-05-09T00:07:28.053Z,2.43
2023-05-09T00:09:55.792Z,2.40
2023-05-09T00:12:23.543Z,2.60
2023-05-09T00:14:51.861Z,2.40
2023-05-09T00:17:19.730Z,2.47
2023-05-09T00:19:47.796Z,2.47
2023-05-09T00:22:17.158Z,2.40
2023-05-09T00:24:44.923Z,2.60
2023-05-09T00:27:12.635Z,3.10
2023-05-09T00:29:40.374Z,2.50
2023-05-09T00:32:08.191Z,2.60
2023-05-09T00:34:35.981Z,3.17
2023-05-09T00:37:03.717Z,2.90
2023-05-09T00:39:32.819Z,3.00
2023-05-09T00:42:00.646Z,2.80
2023-05-09T00:44:28.468Z,3.37
2023-05-09T00:46:56.227Z,2.33
2023-05-09T00:49:24.055Z,2.70
2023-05-09T00:51:52.745Z,3.13
2023-05-09T00:54:20.599Z,2.73
2023-05-09T00:56:49.759Z,3.30
2023-05-09T00:59:18.059Z,3.20
2023-05-09T01:01:46.053Z,3.07
2023-05-09T01:04:15.240Z,2.70
2023-05-09T01:06:53.358Z,2.70
2023-05-09T01:09:27.719Z,3.20
2023-05-09T01:12:08.017Z,3.07
2023-05-09T01:14:45.771Z,2.73
2023-05-09T01:17:20.068Z,3.47
2023-05-09T01:19:58.371Z,2.83
2023-05-09T01:22:30.927Z,2.97
2023-05-09T01:25:19.846Z,3.20
2023-05-09T01:27:57.292Z,2.87
2023-05-09T01:30:27.833Z,3.13
2023-05-09T01:33:01.382Z,3.10
2023-05-09T01:35:32.544Z,3.40
2023-05-09T01:38:00.825Z,3.80
2023-05-09T01:40:32.991Z,3.37
2023-05-09T01:43:05.014Z,3.93
2023-05-09T01:45:36.043Z,3.23
2023-05-09T01:48:04.818Z,3.70
2023-05-09T01:50:35.007Z,3.73
2023-05-09T01:53:03.312Z,3.30
2023-05-09T01:55:34.919Z,3.63
2023-05-09T01:58:04.789Z,3.73
2023-05-09T02:00:34.502Z,3.53
2023-05-09T02:03:04.217Z,3.47
2023-05-09T02:05:33.479Z,4.00
2023-05-09T02:08:01.491Z,4.07
2023-05-09T02:10:30.261Z,3.47
2023-05-09T02:12:58.317Z,4.20
2023-05-09T02:15:26.614Z,4.57
2023-05-09T02:17:56.052Z,3.93
2023-05-09T02:20:23.952Z,3.57
2023-05-09T02:22:52.000Z,4.03
2023-05-09T02:25:21.231Z,3.87
2023-05-09T02:27:49.318Z,4.00
2023-05-09T02:30:23.322Z,4.07
2023-05-09T02:32:53.303Z,4.30
2023-05-09T02:35:24.089Z,4.57
2023-05-09T02:37:52.701Z,4.40
2023-05-09T02:40:21.638Z,3.63
2023-05-09T02:42:49.374Z,4.37
2023-05-09T02:45:17.167Z,4.73
2023-05-09T02:47:44.957Z,5.03
2023-05-09T02:50:13.094Z,5.13
2023-05-09T02:52:42.265Z,4.77
2023-05-09T02:55:10.808Z,5.30
2023-05-09T02:57:38.574Z,5.73
2023-05-09T03:00:09.446Z,5.33
2023-05-09T03:02:37.607Z,5.10
2023-05-09T03:05:06.168Z,5.57
2023-05-09T03:07:34.081Z,5.30
2023-05-09T03:10:03.223Z,5.20
2023-05-09T03:12:31.219Z,5.10
2023-05-09T03:14:59.010Z,4.93
2023-05-09T03:17:27.558Z,5.43
2023-05-09T03:19:55.403Z,5.20
2023-05-09T03:22:23.202Z,5.33
2023-05-09T03:24:51.376Z,5.17
2023-05-09T03:27:20.608Z,5.77
2023-05-09T03:29:48.405Z,5.83
2023-05-09T03:32:16.175Z,5.23
2023-05-09T03:34:44.164Z,4.30
2023-05-09T03:37:11.907Z,5.37
2023-05-09T03:39:39.786Z,6.20
2023-05-09T03:42:07.678Z,5.40
2023-05-09T03:44:36.904Z,5.70
2023-05-09T03:47:04.974Z,5.43
2023-05-09T03:49:32.829Z,5.73
2023-05-09T03:52:00.640Z,5.50
2023-05-09T03:54:28.484Z,6.13
2023-05-09T03:56:56.290Z,6.33
2023-05-09T03:59:24.106Z,6.00
2023-05-09T04:01:53.888Z,6.50
2023-05-09T04:04:21.848Z,6.00
2023-05-09T04:06:49.741Z,5.73
2023-05-09T04:09:17.505Z,6.17
2023-05-09T04:11:45.474Z,6.30
2023-05-09T04:14:13.290Z,6.17
2023-05-09T04:16:41.228Z,6.00
2023-05-09T04:19:10.578Z,6.47
2023-05-09T04:21:38.705Z,6.80
2023-05-09T04:24:08.225Z,7.03
2023-05-09T04:26:38.315Z,5.17
2023-05-09T04:29:06.630Z,6.20
2023-05-09T04:31:34.589Z,6.03
2023-05-09T04:34:03.163Z,6.70
2023-05-09T04:36:33.937Z,6.73
2023-05-09T04:39:02.179Z,6.40
2023-05-09T04:41:30.010Z,5.33
2023-05-09T04:43:58.021Z,6.77
2023-05-09T04:46:26.092Z,6.47
2023-05-09T04:48:54.003Z,7.53
2023-05-09T04:51:22.302Z,6.73
2023-05-09T04:53:51.756Z,6.50
2023-05-09T04:56:19.556Z,6.83
2023-05-09T04:58:47.507Z,7.03
2023-05-09T05:01:15.918Z,6.10
2023-05-09T05:03:44.005Z,6.90
2023-05-09T05:06:11.840Z,5.33
2023-05-09T05:08:39.630Z,5.27
2023-05-09T05:11:08.721Z,7.17
2023-05-09T05:13:36.524Z,5.93
2023-05-09T05:16:04.678Z,6.60
2023-05-09T05:18:32.479Z,7.10
2023-05-09T05:21:00.371Z,6.40
2023-05-09T05:23:28.395Z,6.20
2023-05-09T05:25:56.283Z,7.50
2023-05-09T05:28:25.435Z,7.10
2023-05-09T05:30:53.439Z,7.80
2023-05-09T05:33:21.223Z,6.43
2023-05-09T05:35:49.085Z,7.33
2023-05-09T05:38:16.834Z,7.00
2023-05-09T05:40:44.633Z,7.20
2023-05-09T05:43:12.350Z,6.93
2023-05-09T05:45:41.491Z,6.70
2023-05-09T05:48:09.310Z,6.17
2023-05-09T05:50:38.336Z,7.80
2023-05-09T05:53:06.492Z,6.87
2023-05-09T05:55:34.337Z,7.67
2023-05-09T05:58:02.872Z,7.50
2023-05-09T06:00:30.783Z,7.23
2023-05-09T06:03:00.299Z,7.17
2023-05-09T06:05:28.356Z,5.83
2023-05-09T06:07:56.145Z,5.10
2023-05-09T06:10:23.938Z,7.10
2023-05-09T06:12:51.665Z,6.43
2023-05-09T06:15:19.714Z,6.60
2023-05-09T06:17:47.642Z,5.33
2023-05-09T06:20:16.766Z,6.40
2023-05-09T06:22:44.537Z,6.93
2023-05-09T06:25:12.765Z,5.63
2023-05-09T06:27:40.765Z,5.47
2023-05-09T06:30:23.960Z,6.77
2023-05-09T06:32:53.345Z,5.57
2023-05-09T06:35:22.695Z,6.47
2023-05-09T06:37:50.591Z,4.77
2023-05-09T06:40:18.439Z,5.57
2023-05-09T06:42:46.615Z,5.20
2023-05-09T06:45:14.701Z,6.03
2023-05-09T06:47:42.717Z,5.63
2023-05-09T06:50:10.799Z,6.30
2023-05-09T06:52:40.230Z,6.27
2023-05-09T06:55:09.734Z,6.53
2023-05-09T06:57:39.626Z,6.00
2023-05-09T07:00:09.331Z,6.70
2023-05-09T07:02:41.524Z,5.87
2023-05-09T07:05:10.345Z,6.10
2023-05-09T07:07:39.534Z,6.63
2023-05-09T07:10:11.773Z,5.50
2023-05-09T07:12:40.500Z,5.97
2023-05-09T07:15:10.200Z,5.30
2023-05-09T07:17:38.211Z,6.17
2023-05-09T07:20:07.395Z,5.43
2023-05-09T07:22:37.461Z,6.07
2023-05-09T07:25:08.702Z,5.97
2023-05-09T07:27:36.715Z,5.53
2023-05-09T07:30:05.014Z,5.30
2023-05-09T07:32:32.791Z,4.40
2023-05-09T07:35:00.745Z,4.50
2023-05-09T07:37:28.456Z,5.90
2023-05-09T07:39:56.602Z,5.57
2023-05-09T07:42:26.540Z,5.37
2023-05-09T07:44:56.373Z,4.73
2023-05-09T07:47:24.605Z,5.90
2023-05-09T07:49:52.678Z,4.27
2023-05-09T07:52:21.365Z,5.57
2023-05-09T07:54:49.391Z,5.43
2023-05-09T07:57:17.744Z,6.10
2023-05-09T07:59:46.814Z,6.17
2023-05-09T08:02:14.648Z,5.83
2023-05-09T08:04:42.414Z,6.20
2023-05-09T08:07:11.773Z,5.80
2023-05-09T08:09:39.654Z,6.03
2023-05-09T08:12:07.872Z,6.27
2023-05-09T08:14:35.670Z,5.77
2023-05-09T08:17:04.790Z,5.27
2023-05-09T08:19:32.628Z,4.97
2023-05-09T08:22:03.213Z,6.40
2023-05-09T08:24:31.956Z,5.20
2023-05-09T08:26:59.935Z,5.80
2023-05-09T08:29:28.996Z,5.43
2023-05-09T08:31:56.804Z,5.17
2023-05-09T08:34:26.344Z,5.50
2023-05-09T08:36:54.064Z,5.53
2023-05-09T08:39:22.690Z,4.97
2023-05-09T08:41:50.730Z,5.30
2023-05-09T08:44:18.611Z,4.70
2023-05-09T08:46:49.175Z,4.60
2023-05-09T08:49:17.029Z,5.43
2023-05-09T08:51:47.447Z,4.93
2023-05-09T08:54:15.954Z,4.70
2023-05-09T08:56:44.126Z,4.93
2023-05-09T08:59:12.455Z,5.57
2023-05-09T09:01:41.871Z,4.70
2023-05-09T09:04:11.896Z,4.20
2023-05-09T09:06:40.919Z,4.47
2023-05-09T09:09:10.507Z,4.43
2023-05-09T09:11:39.375Z,4.10
2023-05-09T09:14:13.256Z,3.87
2023-05-09T09:16:42.704Z,4.60
2023-05-09T09:19:13.331Z,4.30
2023-05-09T09:21:42.675Z,3.67
2023-05-09T09:24:14.564Z,4.30
2023-05-09T09:26:48.672Z,4.67
2023-05-09T09:29:18.500Z,5.00
2023-05-09T09:31:48.128Z,4.30
2023-05-09T09:34:25.388Z,4.30
2023-05-09T09:36:53.462Z,3.80
2023-05-09T09:39:23.109Z,4.27
2023-05-09T09:41:50.910Z,4.17
2023-05-09T09:44:20.506Z,3.73
2023-05-09T09:46:50.450Z,3.20
2023-05-09T09:49:20.404Z,4.50
2023-05-09T09:51:51.363Z,3.70
2023-05-09T09:54:19.707Z,3.67
2023-05-09T09:56:50.293Z,4.63
2023-05-09T09:59:22.653Z,3.90
2023-05-09T10:02:02.906Z,4.10
2023-05-09T10:04:34.543Z,3.60
2023-05-09T10:07:05.369Z,3.33
2023-05-09T10:09:34.911Z,2.90
2023-05-09T10:12:06.257Z,3.50
2023-05-09T10:14:35.880Z,4.07
2023-05-09T10:17:05.625Z,3.93
2023-05-09T10:19:34.288Z,2.80
2023-05-09T10:22:05.156Z,3.70
2023-05-09T10:24:36.675Z,3.77
2023-05-09T10:27:10.502Z,3.57
2023-05-09T10:29:40.361Z,3.93
2023-05-09T10:32:15.923Z,3.27
2023-05-09T10:34:48.382Z,3.47
2023-05-09T10:37:17.408Z,2.93
2023-05-09T10:39:45.246Z,2.53
2023-05-09T10:42:15.116Z,2.83
2023-05-09T10:44:43.199Z,3.90
2023-05-09T10:47:13.109Z,3.40
2023-05-09T10:49:41.776Z,3.03
2023-05-09T10:52:09.737Z,3.90
2023-05-09T10:54:38.446Z,3.37
2023-05-09T10:57:09.855Z,3.40
2023-05-09T10:59:41.287Z,3.67
2023-05-09T11:02:14.135Z,3.30
2023-05-09T11:04:44.091Z,3.33
2023-05-09T11:07:25.867Z,3.70
2023-05-09T11:09:54.341Z,3.20
2023-05-09T11:12:24.701Z,3.83
2023-05-09T11:14:54.654Z,3.90
2023-05-09T11:17:31.612Z,3.67
2023-05-09T11:20:02.436Z,3.90
2023-05-09T11:22:32.712Z,3.67
2023-05-09T11:25:04.655Z,3.40
2023-05-09T11:27:39.641Z,3.60
2023-05-09T11:30:10.585Z,4.17
2023-05-09T11:32:47.198Z,4.53
2023-05-09T11:35:17.519Z,3.80
2023-05-09T11:37:48.216Z,4.45
2023-05-09T11:40:17.422Z,4.53
2023-05-09T11:42:46.978Z,3.97
2023-05-09T11:45:16.940Z,3.77
2023-05-09T11:47:46.107Z,3.80
2023-05-09T11:50:15.316Z,3.22
2023-05-09T11:52:43.372Z,5.83
2023-05-09T11:55:13.015Z,4.90
2023-05-09T11:57:42.439Z,4.43
2023-05-09T12:00:11.958Z,3.57
2023-05-09T12:02:41.208Z,3.67
2023-05-09T12:05:11.000Z,4.60
2023-05-09T12:07:39.598Z,4.20
2023-05-09T12:10:09.594Z,4.40
2023-05-09T12:12:38.120Z,4.23
2023-05-09T12:15:09.413Z,4.00
2023-05-09T12:17:37.402Z,4.23
2023-05-09T12:20:07.894Z,4.30
2023-05-09T12:22:37.368Z,3.80
2023-05-09T12:25:08.282Z,3.03
2023-05-09T12:27:37.409Z,4.20
2023-05-09T12:30:08.503Z,3.70
2023-05-09T12:32:37.771Z,4.33
2023-05-09T12:35:08.315Z,4.27
2023-05-09T12:37:36.165Z,5.30
2023-05-09T12:40:05.433Z,3.73
2023-05-09T12:42:33.832Z,4.18
2023-05-09T12:45:02.724Z,4.28
2023-05-09T12:47:31.258Z,3.80
2023-05-09T12:49:59.468Z,4.03
2023-05-09T12:52:35.939Z,4.05
2023-05-09T12:55:08.385Z,4.72
2023-05-09T12:57:36.591Z,4.53
2023-05-09T13:00:08.441Z,4.72
2023-05-09T13:02:36.765Z,4.03
2023-05-09T13:05:10.398Z,3.78
2023-05-09T13:07:43.453Z,4.55
2023-05-09T13:10:12.763Z,4.72
2023-05-09T13:12:44.487Z,4.82
2023-05-09T13:15:13.001Z,5.03
2023-05-09T13:17:41.099Z,4.67
2023-05-09T13:20:10.895Z,4.30
2023-05-09T13:22:39.041Z,4.17
2023-05-09T13:25:09.454Z,4.83
2023-05-09T13:27:37.474Z,4.57
2023-05-09T13:30:08.441Z,4.45
2023-05-09T13:32:36.491Z,4.68
2023-05-09T13:35:07.469Z,5.03
2023-05-09T13:37:35.275Z,4.60
2023-05-09T13:40:05.507Z,4.30
2023-05-09T13:42:34.913Z,4.67
2023-05-09T13:45:02.792Z,5.18
2023-05-09T13:47:30.766Z,4.20
2023-05-09T13:49:58.641Z,5.15
2023-05-09T13:52:27.110Z,4.47
2023-05-09T13:54:54.924Z,4.50
2023-05-09T13:57:22.754Z,4.72
2023-05-09T13:59:53.338Z,5.20
2023-05-09T14:02:21.126Z,4.97
2023-05-09T14:04:48.877Z,4.57
2023-05-09T14:07:17.739Z,5.38
2023-05-09T14:09:48.153Z,6.00
2023-05-09T14:12:19.282Z,5.53
2023-05-09T14:14:47.530Z,4.80
2023-05-09T14:17:16.874Z,4.47
2023-05-09T14:19:44.710Z,4.03
2023-05-09T14:22:12.359Z,4.17
2023-05-09T14:24:40.831Z,4.30
2023-05-09T14:27:08.654Z,5.00
2023-05-09T14:29:41.118Z,4.80
2023-05-09T14:32:12.674Z,5.13
2023-05-09T14:34:42.122Z,4.73
2023-05-09T14:37:16.572Z,4.53
2023-05-09T14:39:46.656Z,4.77
2023-05-09T14:42:16.537Z,4.57
2023-05-09T14:44:45.447Z,3.80
2023-05-09T14:47:13.264Z,4.20
2023-05-09T14:49:42.351Z,4.53
2023-05-09T14:52:10.961Z,3.87
2023-05-09T14:54:38.782Z,3.33
2023-05-09T14:57:07.629Z,4.82
2023-05-09T14:59:37.105Z,4.03
2023-05-09T15:02:05.346Z,4.03
2023-05-09T15:04:33.293Z,4.30
2023-05-09T15:07:02.560Z,4.73
2023-05-09T15:09:30.265Z,3.53
2023-05-09T15:11:58.100Z,4.20
2023-05-09T15:14:25.849Z,4.43
2023-05-09T15:16:54.814Z,4.23
2023-05-09T15:19:23.128Z,4.10
2023-05-09T15:21:51.625Z,3.67
2023-05-09T15:24:20.809Z,4.30
2023-05-09T15:26:48.667Z,3.97
2023-05-09T15:29:16.662Z,3.70
2023-05-09T15:31:44.429Z,3.37
2023-05-09T15:34:12.731Z,3.97
2023-05-09T15:36:40.478Z,4.13
2023-05-09T15:39:08.702Z,3.17
2023-05-09T15:41:37.922Z,3.77
2023-05-09T15:44:07.324Z,4.13
2023-05-09T15:46:35.400Z,3.67
2023-05-09T15:49:03.372Z,4.10
2023-05-09T15:51:32.526Z,3.60
2023-05-09T15:54:00.669Z,3.50
2023-05-09T15:56:29.459Z,3.43
2023-05-09T15:58:59.631Z,3.03
2023-05-09T16:01:27.484Z,3.60
2023-05-09T16:03:55.422Z,3.07
2023-05-09T16:06:23.244Z,3.53
2023-05-09T16:08:51.077Z,3.30
2023-05-09T16:11:19.501Z,3.50
2023-05-09T16:13:47.626Z,3.90
2023-05-09T16:16:16.862Z,3.13
2023-05-09T16:18:44.641Z,3.33
2023-05-09T16:21:12.468Z,2.97
2023-05-09T16:23:40.570Z,3.23
2023-05-09T16:26:08.495Z,2.97
2023-05-09T16:28:36.422Z,3.40
2023-05-09T16:31:05.016Z,2.90
2023-05-09T16:33:35.205Z,3.20
2023-05-09T16:36:02.942Z,2.87
2023-05-09T16:38:31.181Z,3.33
2023-05-09T16:40:59.093Z,3.13
2023-05-09T16:43:28.312Z,2.70
2023-05-09T16:45:56.279Z,2.93
2023-05-09T16:48:24.264Z,3.10
2023-05-09T16:50:53.999Z,2.60
2023-05-09T16:53:22.854Z,2.37
2023-05-09T16:55:50.997Z,2.50
2023-05-09T16:58:18.784Z,3.00
2023-05-09T17:00:46.631Z,3.20
2023-05-09T17:03:14.623Z,2.60
2023-05-09T17:05:43.001Z,2.77
2023-05-09T17:08:12.653Z,2.40
2023-05-09T17:10:42.058Z,2.40
2023-05-09T17:13:10.538Z,2.67
2023-05-09T17:15:39.153Z,3.00
2023-05-09T17:18:07.246Z,2.80
2023-05-09T17:20:35.612Z,2.40
2023-05-09T17:23:03.586Z,2.53
2023-05-09T17:25:33.433Z,2.50
2023-05-09T17:28:01.299Z,2.63
2023-05-09T17:30:29.234Z,2.23
2023-05-09T17:32:57.055Z,2.50
2023-05-09T17:35:25.807Z,2.53
2023-05-09T17:37:56.760Z,2.13
2023-05-09T17:40:25.800Z,2.27
2023-05-09T17:42:57.144Z,2.10
2023-05-09T17:45:29.547Z,2.60
2023-05-09T17:48:01.502Z,2.10
2023-05-09T17:50:29.934Z,2.10
2023-05-09T17:52:58.604Z,3.00
2023-05-09T17:55:26.582Z,2.10
2023-05-09T17:57:55.995Z,2.57
2023-05-09T18:00:23.857Z,1.97
2023-05-09T18:02:56.595Z,2.73
2023-05-09T18:05:26.763Z,1.80
2023-05-09T18:07:57.049Z,2.53
2023-05-09T18:10:25.831Z,2.03
2023-05-09T18:12:54.365Z,2.43
2023-05-09T18:15:23.997Z,2.23
2023-05-09T18:17:54.580Z,2.23
2023-05-09T18:20:23.498Z,1.80
2023-05-09T18:22:51.587Z,2.47
2023-05-09T18:25:26.947Z,1.60
2023-05-09T18:27:56.173Z,2.40
2023-05-09T18:30:32.716Z,2.37
2023-05-09T18:33:07.411Z,1.40
2023-05-09T18:35:35.300Z,2.00
2023-05-09T18:38:05.048Z,2.20
2023-05-09T18:40:32.929Z,2.00
2023-05-09T18:43:01.039Z,2.60
2023-05-09T18:45:33.740Z,2.17
2023-05-09T18:48:02.882Z,2.13
2023-05-09T18:50:31.073Z,2.20
2023-05-09T18:52:59.581Z,1.63
2023-05-09T18:55:27.904Z,1.70
2023-05-09T18:57:58.036Z,1.70
2023-05-09T19:00:26.198Z,1.90
2023-05-09T19:02:55.586Z,2.00
2023-05-09T19:05:23.358Z,1.80
2023-05-09T19:07:55.649Z,1.87
2023-05-09T19:10:24.137Z,2.20
2023-05-09T19:12:52.331Z,2.07
2023-05-09T19:15:21.213Z,2.87
2023-05-09T19:17:49.173Z,2.00
2023-05-09T19:20:18.927Z,1.43
2023-05-09T19:22:51.244Z,1.70
2023-05-09T19:25:19.753Z,1.83
2023-05-09T19:27:49.058Z,1.70
2023-05-09T19:30:17.651Z,1.80
2023-05-09T19:32:46.005Z,1.80
2023-05-09T19:35:14.078Z,1.70
2023-05-09T19:37:43.333Z,1.80
2023-05-09T19:40:11.898Z,1.20
2023-05-09T19:42:41.879Z,1.77
2023-05-09T19:45:10.780Z,1.90
2023-05-09T19:47:38.958Z,1.90
2023-05-09T19:50:08.622Z,1.60
2023-05-09T19:52:37.365Z,1.83
2023-05-09T19:55:07.581Z,2.27
2023-05-09T19:57:38.413Z,1.40
2023-05-09T20:00:07.841Z,1.60
2023-05-09T20:02:35.766Z,1.33
2023-05-09T20:05:04.639Z,1.80
2023-05-09T20:07:32.495Z,1.67
2023-05-09T20:10:00.271Z,1.77
2023-05-09T20:12:30.348Z,1.90
2023-05-09T20:14:58.333Z,2.33
2023-05-09T20:17:26.128Z,1.67
2023-05-09T20:19:54.362Z,1.50
2023-05-09T20:22:22.616Z,2.00
2023-05-09T20:24:50.620Z,1.87
2023-05-09T20:27:18.776Z,2.07
2023-05-09T20:29:48.015Z,1.60
2023-05-09T20:32:16.648Z,1.73
2023-05-09T20:34:44.896Z,1.60
2023-05-09T20:37:13.167Z,1.90
2023-05-09T20:39:41.530Z,2.90
2023-05-09T20:42:09.590Z,1.77
2023-05-09T20:44:37.554Z,1.70
2023-05-09T20:47:06.884Z,2.37
2023-05-09T20:49:35.048Z,1.97
2023-05-09T20:52:03.362Z,1.90
2023-05-09T20:54:32.156Z,2.20
2023-05-09T20:56:59.961Z,1.83
2023-05-09T20:59:28.359Z,1.90
2023-05-09T21:01:56.571Z,1.73
2023-05-09T21:04:26.444Z,2.00
2023-05-09T21:06:54.333Z,1.93
2023-05-09T21:09:22.224Z,2.23
2023-05-09T21:11:49.990Z,2.27
2023-05-09T21:14:17.756Z,2.00
2023-05-09T21:16:46.595Z,2.13
2023-05-09T21:19:14.464Z,1.80
2023-05-09T21:21:43.757Z,1.90
2023-05-09T21:24:11.682Z,1.70
2023-05-09T21:26:39.529Z,1.90
2023-05-09T21:29:07.711Z,2.00
2023-05-09T21:31:35.604Z,1.93
2023-05-09T21:34:09.666Z,2.07
2023-05-09T21:36:38.460Z,2.43
2023-05-09T21:39:12.468Z,1.80
2023-05-09T21:41:43.518Z,2.00
2023-05-09T21:44:12.377Z,2.10
2023-05-09T21:46:41.184Z,2.23
2023-05-09T21:49:09.128Z,2.30
2023-05-09T21:51:36.926Z,2.33
2023-05-09T21:54:04.903Z,2.30
2023-05-09T21:56:34.204Z,2.00
2023-05-09T21:59:02.036Z,2.40
2023-05-09T22:01:30.165Z,2.03
2023-05-09T22:03:58.204Z,2.10
2023-05-09T22:06:26.852Z,2.17
2023-05-09T22:08:57.851Z,2.37
2023-05-09T22:11:26.318Z,2.37
2023-05-09T22:13:55.756Z,2.17
2023-05-09T22:16:23.785Z,2.53
2023-05-09T22:18:54.302Z,2.20
2023-05-09T22:21:25.314Z,2.30
2023-05-09T22:23:56.226Z,2.77
2023-05-09T22:26:24.604Z,2.87
2023-05-09T22:28:53.344Z,2.20
2023-05-09T22:31:23.082Z,2.90
2023-05-09T22:33:51.013Z,2.53
2023-05-09T22:36:18.925Z,2.57
2023-05-09T22:38:46.992Z,2.80
2023-05-09T22:41:15.200Z,2.47
2023-05-09T22:43:43.372Z,2.37
2023-05-09T22:46:11.242Z,2.47
2023-05-09T22:48:40.519Z,2.60
2023-05-09T22:51:09.341Z,2.60
2023-05-09T22:53:37.710Z,2.77
2023-05-09T22:56:07.407Z,2.80
2023-05-09T22:58:35.212Z,2.57
2023-05-09T23:01:03.080Z,2.40
2023-05-09T23:03:30.954Z,2.80
2023-05-09T23:06:00.078Z,2.73
2023-05-09T23:08:28.051Z,2.80
2023-05-09T23:10:56.235Z,2.87
2023-05-09T23:13:24.113Z,2.97
2023-05-09T23:15:52.058Z,2.43
2023-05-09T23:18:21.016Z,2.93
2023-05-09T23:20:48.995Z,3.10
2023-05-09T23:23:18.145Z,2.87
2023-05-09T23:25:46.066Z,2.73
2023-05-09T23:28:13.881Z,3.20
2023-05-09T23:30:41.866Z,2.93
2023-05-09T23:33:09.680Z,3.20
2023-05-09T23:35:38.414Z,2.83
2023-05-09T23:38:06.408Z,3.17
2023-05-09T23:40:39.453Z,3.20
2023-05-09T23:43:08.195Z,2.70
2023-05-09T23:45:36.202Z,3.47
2023-05-09T23:48:04.311Z,2.90
2023-05-09T23:50:32.145Z,2.87
2023-05-09T23:52:59.952Z,2.97
2023-05-09T23:55:31.934Z,3.30
2023-05-09T23:58:02.576Z,3.33
